createdAt,value
2022-07-30T00:03:01.119Z,978.76
2022-07-30T00:10:34.652Z,978.71
2022-07-30T00:18:05.711Z,978.68
2022-07-30T00:25:43.863Z,978.69
2022-07-30T00:33:33.772Z,978.68
2022-07-30T00:41:09.137Z,978.65
2022-07-30T00:48:57.016Z,978.64
2022-07-30T00:56:38.154Z,978.64
2022-07-30T01:04:13.208Z,978.67
2022-07-30T01:11:36.840Z,978.7
2022-07-30T01:19:25.171Z,978.73
2022-07-30T01:27:38.531Z,978.71
2022-07-30T01:35:31.855Z,978.74
2022-07-30T01:43:27.889Z,978.71
2022-07-30T01:51:05.175Z,978.67
2022-07-30T01:58:54.078Z,978.71
2022-07-30T02:06:39.238Z,978.72
2022-07-30T02:14:42.206Z,978.73
2022-07-30T02:22:48.787Z,978.73
2022-07-30T02:30:31.916Z,978.65
2022-07-30T02:38:15.311Z,978.7
2022-07-30T02:45:38.704Z,978.72
2022-07-30T02:52:38.969Z,978.74
2022-07-30T02:59:23.488Z,978.78
2022-07-30T03:06:07.111Z,978.77
2022-07-30T03:12:37.216Z,978.79
2022-07-30T03:19:17.601Z,978.84
2022-07-30T03:26:00.882Z,978.9
2022-07-30T03:32:36.966Z,978.92
2022-07-30T03:39:07.927Z,978.92
2022-07-30T03:45:47.370Z,978.91
2022-07-30T03:52:19.138Z,978.96
2022-07-30T03:58:44.373Z,978.96
2022-07-30T04:05:20.452Z,979.02
2022-07-30T04:11:45.491Z,979.05
2022-07-30T04:18:23.959Z,979.08
2022-07-30T04:25:06.264Z,979.11
2022-07-30T04:31:41.786Z,979.16
2022-07-30T04:38:06.746Z,979.22
2022-07-30T04:44:31.981Z,979.27
2022-07-30T04:51:11.233Z,979.36
2022-07-30T04:57:51.192Z,979.44
2022-07-30T05:04:26.890Z,979.45
2022-07-30T05:10:59.990Z,979.5
2022-07-30T05:17:24.304Z,979.49
2022-07-30T05:23:51.196Z,979.52
2022-07-30T05:30:18.483Z,979.55
2022-07-30T05:36:59.528Z,979.57
2022-07-30T05:43:24.025Z,979.57
2022-07-30T05:49:48.661Z,979.54
2022-07-30T05:56:16.012Z,979.5
2022-07-30T06:02:44.011Z,979.51
2022-07-30T06:09:16.023Z,979.55
2022-07-30T06:15:48.574Z,979.57
2022-07-30T06:22:13.202Z,979.62
2022-07-30T06:28:40.437Z,979.64
2022-07-30T06:35:06.271Z,979.62
2022-07-30T06:41:30.769Z,979.59
2022-07-30T06:48:03.008Z,979.54
2022-07-30T06:54:26.365Z,979.53
2022-07-30T07:00:56.391Z,979.53
2022-07-30T07:07:41.080Z,979.55
2022-07-30T07:14:05.508Z,979.57
2022-07-30T07:20:30.426Z,979.52
2022-07-30T07:27:12.457Z,979.52
2022-07-30T07:33:44.626Z,979.49
2022-07-30T07:40:13.050Z,979.46
2022-07-30T07:46:41.588Z,979.5
2022-07-30T07:53:14.074Z,979.48
2022-07-30T07:59:43.351Z,979.52
2022-07-30T08:06:24.082Z,979.5
2022-07-30T08:12:51.335Z,979.51
2022-07-30T08:19:20.557Z,979.5
2022-07-30T08:25:55.520Z,979.49
2022-07-30T08:32:26.982Z,979.47
2022-07-30T08:38:48.092Z,979.48
2022-07-30T08:45:38.015Z,979.45
2022-07-30T08:52:16.102Z,979.43
2022-07-30T08:58:58.269Z,979.43
2022-07-30T09:05:25.144Z,979.46
2022-07-30T09:11:50.287Z,979.52
2022-07-30T09:18:34.602Z,979.54
2022-07-30T09:25:20.459Z,979.54
2022-07-30T09:32:07.471Z,979.47
2022-07-30T09:38:55.083Z,979.49
2022-07-30T09:45:57.789Z,979.48
2022-07-30T09:52:49.507Z,979.39
2022-07-30T09:59:25.566Z,979.42
2022-07-30T10:06:16.911Z,979.44
2022-07-30T10:12:46.776Z,979.35
2022-07-30T10:19:39.469Z,979.33
2022-07-30T10:25:57.127Z,979.28
2022-07-30T10:32:31.639Z,979.36
2022-07-30T10:39:08.156Z,979.26
2022-07-30T10:46:20.023Z,979.31
2022-07-30T10:53:11.523Z,979.24
2022-07-30T10:59:55.368Z,979.29
2022-07-30T11:06:45.623Z,979.31
2022-07-30T11:13:38.809Z,979.32
2022-07-30T11:20:36.221Z,979.4
2022-07-30T11:27:23.238Z,979.25
2022-07-30T11:34:18.527Z,979.21
2022-07-30T11:41:12.517Z,979.2
2022-07-30T11:48:05.596Z,979.16
2022-07-30T11:55:06.473Z,979.07
2022-07-30T12:01:53.322Z,979.16
2022-07-30T12:08:36.218Z,979.06
2022-07-30T12:15:32.312Z,979.06
2022-07-30T12:22:14.642Z,979.04
2022-07-30T12:28:40.728Z,979.02
2022-07-30T12:35:08.909Z,979.07
2022-07-30T12:42:05.788Z,979.12
2022-07-30T12:48:40.503Z,979.09
2022-07-30T12:55:36.337Z,979.1
2022-07-30T13:02:25.142Z,979
2022-07-30T13:09:13.624Z,979.01
2022-07-30T13:15:56.355Z,978.96
2022-07-30T13:22:27.526Z,978.97
2022-07-30T13:28:52.380Z,978.94
2022-07-30T13:35:31.851Z,978.91
2022-07-30T13:42:02.052Z,978.87
2022-07-30T13:48:29.622Z,978.83
2022-07-30T13:55:02.424Z,978.92
2022-07-30T14:01:34.990Z,978.72
2022-07-30T14:07:55.848Z,978.66
2022-07-30T14:14:19.339Z,978.66
2022-07-30T14:20:49.691Z,978.65
2022-07-30T14:27:14.632Z,978.7
2022-07-30T14:33:37.584Z,978.73
2022-07-30T14:40:00.396Z,978.7
2022-07-30T14:46:26.900Z,978.71
2022-07-30T14:52:58.800Z,978.67
2022-07-30T14:59:23.029Z,978.64
2022-07-30T15:05:57.658Z,978.76
2022-07-30T15:12:28.636Z,978.63
2022-07-30T15:19:04.892Z,978.59
2022-07-30T15:25:31.771Z,978.67
2022-07-30T15:32:03.734Z,978.59
2022-07-30T15:38:33.299Z,978.71
2022-07-30T15:45:17.509Z,978.65
2022-07-30T15:51:43.716Z,978.7
2022-07-30T15:58:33.195Z,978.69
2022-07-30T16:05:16.438Z,978.72
2022-07-30T16:12:00.665Z,978.7
2022-07-30T16:18:55.253Z,978.7
2022-07-30T16:25:56.946Z,978.64
2022-07-30T16:32:33.861Z,978.62
2022-07-30T16:39:25.803Z,978.56
2022-07-30T16:46:03.915Z,978.6
2022-07-30T16:52:52.487Z,978.59
2022-07-30T16:59:31.355Z,978.59
2022-07-30T17:06:17.193Z,978.62
2022-07-30T17:13:34.393Z,978.64
2022-07-30T17:20:49.521Z,978.7
2022-07-30T17:28:11.614Z,978.78
2022-07-30T17:35:03.123Z,978.86
2022-07-30T17:42:06.599Z,978.95
2022-07-30T17:49:14.169Z,978.98
2022-07-30T17:56:25.516Z,978.98
2022-07-30T18:03:05.429Z,978.95
2022-07-30T18:09:56.840Z,979.01
2022-07-30T18:17:15.289Z,979.06
2022-07-30T18:24:28.716Z,979.03
2022-07-30T18:31:48.935Z,979.02
2022-07-30T18:38:42.961Z,979.12
2022-07-30T18:45:38.183Z,979.21
2022-07-30T18:52:20.605Z,979.24
2022-07-30T18:59:29.058Z,979.32
2022-07-30T19:06:43.629Z,979.32
2022-07-30T19:14:03.951Z,979.4
2022-07-30T19:20:56.868Z,979.47
2022-07-30T19:27:51.275Z,979.56
2022-07-30T19:34:24.883Z,979.56
2022-07-30T19:41:14.785Z,979.63
2022-07-30T19:47:50.038Z,979.71
2022-07-30T19:54:31.505Z,979.92
2022-07-30T20:00:57.201Z,979.9
2022-07-30T20:07:36.154Z,979.99
2022-07-30T20:14:04.610Z,980.05
2022-07-30T20:20:26.638Z,980.06
2022-07-30T20:27:36.704Z,980.15
2022-07-30T20:33:51.474Z,980.14
2022-07-30T20:40:15.867Z,980.2
2022-07-30T20:46:40.600Z,980.17
2022-07-30T20:53:05.831Z,980.23
2022-07-30T20:59:31.782Z,980.24
2022-07-30T21:06:02.919Z,980.31
2022-07-30T21:12:35.012Z,980.37
2022-07-30T21:19:05.125Z,980.36
2022-07-30T21:25:34.401Z,980.38
2022-07-30T21:32:26.194Z,980.37
2022-07-30T21:38:54.944Z,980.39
2022-07-30T21:45:21.266Z,980.34
2022-07-30T21:52:04.959Z,980.34
2022-07-30T21:58:39.909Z,980.33
2022-07-30T22:05:11.493Z,980.37
2022-07-30T22:11:45.187Z,980.36
2022-07-30T22:18:13.116Z,980.35
2022-07-30T22:24:41.923Z,980.41
2022-07-30T22:31:16.701Z,980.43
2022-07-30T22:38:23.503Z,980.49
2022-07-30T22:45:49.248Z,980.42
2022-07-30T22:54:10.259Z,980.38
2022-07-30T23:01:03.839Z,980.33
2022-07-30T23:07:54.297Z,980.35
2022-07-30T23:14:29.138Z,980.29
2022-07-30T23:21:05.849Z,980.3
2022-07-30T23:27:26.774Z,980.35
2022-07-30T23:33:53.778Z,980.35
2022-07-30T23:40:24.670Z,980.36
2022-07-30T23:46:55.947Z,980.32
2022-07-30T23:53:24.999Z,980.32
2022-07-30T23:59:46.933Z,980.29
